createdAt,value
2023-01-28T00:01:59.192Z,6.37
2023-01-28T00:04:26.285Z,6.36
2023-01-28T00:06:54.817Z,6.42
2023-01-28T00:09:22.510Z,6.39
2023-01-28T00:11:49.887Z,6.29
2023-01-28T00:14:17.353Z,6.38
2023-01-28T00:16:44.871Z,6.45
2023-01-28T00:19:12.361Z,6.26
2023-01-28T00:21:43.735Z,6.26
2023-01-28T00:24:11.088Z,6.17
2023-01-28T00:26:38.154Z,6.24
2023-01-28T00:29:05.258Z,6.25
2023-01-28T00:31:32.269Z,6.33
2023-01-28T00:34:00.523Z,6.14
2023-01-28T00:36:27.900Z,6.36
2023-01-28T00:38:58.753Z,6.30
2023-01-28T00:41:29.052Z,6.28
2023-01-28T00:43:59.038Z,6.21
2023-01-28T00:46:27.387Z,6.23
2023-01-28T00:48:54.937Z,6.32
2023-01-28T00:51:22.402Z,6.17
2023-01-28T00:53:49.922Z,6.19
2023-01-28T00:56:18.864Z,6.21
2023-01-28T00:58:46.726Z,6.33
2023-01-28T01:01:18.910Z,6.38
2023-01-28T01:03:46.754Z,6.33
2023-01-28T01:06:16.686Z,6.41
2023-01-28T01:08:50.024Z,6.39
2023-01-28T01:11:18.961Z,6.23
2023-01-28T01:13:56.769Z,6.17
2023-01-28T01:16:28.474Z,6.38
2023-01-28T01:18:56.592Z,6.38
2023-01-28T01:21:27.097Z,6.34
2023-01-28T01:23:55.079Z,6.22
2023-01-28T01:26:22.608Z,6.20
2023-01-28T01:28:52.251Z,6.27
2023-01-28T01:31:22.089Z,6.31
2023-01-28T01:33:51.366Z,6.45
2023-01-28T01:36:21.648Z,6.16
2023-01-28T01:38:53.275Z,6.35
2023-01-28T01:41:31.134Z,6.35
2023-01-28T01:44:03.152Z,6.09
2023-01-28T01:46:49.233Z,6.32
2023-01-28T01:49:23.056Z,6.30
2023-01-28T01:52:03.598Z,6.33
2023-01-28T01:54:32.801Z,6.36
2023-01-28T01:57:03.445Z,6.41
2023-01-28T01:59:33.660Z,6.37
2023-01-28T02:02:05.643Z,6.36
2023-01-28T02:04:39.653Z,6.44
2023-01-28T02:07:09.433Z,6.43
2023-01-28T02:09:41.447Z,6.34
2023-01-28T02:12:18.138Z,6.48
2023-01-28T02:14:52.173Z,6.47
2023-01-28T02:17:19.722Z,6.22
2023-01-28T02:20:10.235Z,6.38
2023-01-28T02:22:46.164Z,6.37
2023-01-28T02:25:37.274Z,6.43
2023-01-28T02:28:33.021Z,6.53
2023-01-28T02:31:19.874Z,6.42
2023-01-28T02:34:13.465Z,6.43
2023-01-28T02:36:45.910Z,6.27
2023-01-28T02:39:33.419Z,6.41
2023-01-28T02:42:14.878Z,6.34
2023-01-28T02:44:42.264Z,6.24
2023-01-28T02:47:33.762Z,6.37
2023-01-28T02:50:09.946Z,6.37
2023-01-28T02:53:30.510Z,6.44
2023-01-28T02:56:34.155Z,6.41
2023-01-28T02:59:31.755Z,6.23
2023-01-28T03:02:38.589Z,6.45
2023-01-28T03:05:25.489Z,6.36
2023-01-28T03:07:53.791Z,6.29
2023-01-28T03:10:25.700Z,6.17
2023-01-28T03:13:15.339Z,6.20
2023-01-28T03:16:06.648Z,6.18
2023-01-28T03:18:57.095Z,6.07
2023-01-28T03:21:54.714Z,6.17
2023-01-28T03:24:49.973Z,6.24
2023-01-28T03:28:06.311Z,6.12
2023-01-28T03:31:12.090Z,6.01
2023-01-28T03:34:05.675Z,6.12
2023-01-28T03:36:51.281Z,6.06
2023-01-28T03:39:38.149Z,6.07
2023-01-28T03:42:13.586Z,6.04
2023-01-28T03:45:14.545Z,6.12
2023-01-28T03:47:43.235Z,6.10
2023-01-28T03:50:11.783Z,6.08
2023-01-28T03:53:13.526Z,6.13
2023-01-28T03:55:48.893Z,6.19
2023-01-28T03:58:18.059Z,6.24
2023-01-28T04:00:46.816Z,6.23
2023-01-28T04:03:19.148Z,6.38
2023-01-28T04:06:05.175Z,6.37
2023-01-28T04:08:53.459Z,6.17
2023-01-28T04:11:53.510Z,6.25
2023-01-28T04:14:31.389Z,6.23
2023-01-28T04:17:11.183Z,6.21
2023-01-28T04:19:38.984Z,6.25
2023-01-28T04:22:10.747Z,6.29
2023-01-28T04:24:39.251Z,6.19
2023-01-28T04:27:06.602Z,6.27
2023-01-28T04:29:33.939Z,6.23
2023-01-28T04:32:18.840Z,6.14
2023-01-28T04:35:15.785Z,6.20
2023-01-28T04:37:58.255Z,6.17
2023-01-28T04:40:37.483Z,6.15
2023-01-28T04:43:10.460Z,6.07
2023-01-28T04:45:49.341Z,6.22
2023-01-28T04:48:41.646Z,6.16
2023-01-28T04:51:28.889Z,6.19
2023-01-28T04:54:08.763Z,6.22
2023-01-28T04:56:37.055Z,6.22
2023-01-28T04:59:04.988Z,6.31
2023-01-28T05:01:33.326Z,6.05
2023-01-28T05:04:05.384Z,6.01
2023-01-28T05:06:34.949Z,6.22
2023-01-28T05:09:07.616Z,6.02
2023-01-28T05:11:36.314Z,6.02
2023-01-28T05:14:05.867Z,5.94
2023-01-28T05:16:40.575Z,6.18
2023-01-28T05:19:08.752Z,6.17
2023-01-28T05:21:40.432Z,5.99
2023-01-28T05:24:15.987Z,6.03
2023-01-28T05:26:44.555Z,6.04
2023-01-28T05:29:12.310Z,6.13
2023-01-28T05:31:40.316Z,6.13
2023-01-28T05:34:08.455Z,6.06
2023-01-28T05:36:35.809Z,6.03
2023-01-28T05:39:10.641Z,6.01
2023-01-28T05:41:37.613Z,5.94
2023-01-28T05:44:05.193Z,6.10
2023-01-28T05:46:46.551Z,5.95
2023-01-28T05:49:36.711Z,5.98
2023-01-28T05:52:31.781Z,6.15
2023-01-28T05:54:58.961Z,6.21
2023-01-28T05:57:26.930Z,6.24
2023-01-28T05:59:54.349Z,6.12
2023-01-28T06:02:22.400Z,6.09
2023-01-28T06:04:53.158Z,5.88
2023-01-28T06:07:20.314Z,5.74
2023-01-28T06:09:48.467Z,5.94
2023-01-28T06:12:19.105Z,6.02
2023-01-28T06:15:01.087Z,6.18
2023-01-28T06:17:51.973Z,6.13
2023-01-28T06:20:27.873Z,6.20
2023-01-28T06:22:57.520Z,6.26
2023-01-28T06:25:24.781Z,6.15
2023-01-28T06:27:52.966Z,6.26
2023-01-28T06:30:20.053Z,6.13
2023-01-28T06:32:47.435Z,6.03
2023-01-28T06:35:14.756Z,6.10
2023-01-28T06:37:42.513Z,6.13
2023-01-28T06:40:10.456Z,6.21
2023-01-28T06:42:37.793Z,6.20
2023-01-28T06:45:05.409Z,6.08
2023-01-28T06:47:32.358Z,6.07
2023-01-28T06:49:59.747Z,6.12
2023-01-28T06:52:26.676Z,6.12
2023-01-28T06:54:54.166Z,6.23
2023-01-28T06:57:21.090Z,6.18
2023-01-28T06:59:48.418Z,6.17
2023-01-28T07:02:15.329Z,6.15
2023-01-28T07:04:42.667Z,6.18
2023-01-28T07:07:10.056Z,6.27
2023-01-28T07:09:37.352Z,6.16
2023-01-28T07:12:05.339Z,6.17
2023-01-28T07:14:32.789Z,6.33
2023-01-28T07:16:59.792Z,6.21
2023-01-28T07:19:27.026Z,6.14
2023-01-28T07:21:58.158Z,6.18
2023-01-28T07:24:25.511Z,6.28
2023-01-28T07:26:53.002Z,6.27
2023-01-28T07:29:20.340Z,6.24
2023-01-28T07:31:47.939Z,6.32
2023-01-28T07:34:15.371Z,6.05
2023-01-28T07:36:42.268Z,6.02
2023-01-28T07:39:09.236Z,6.16
2023-01-28T07:41:36.573Z,5.80
2023-01-28T07:44:06.306Z,5.95
2023-01-28T07:46:33.743Z,6.17
2023-01-28T07:49:01.318Z,6.29
2023-01-28T07:51:28.404Z,6.36
2023-01-28T07:53:55.395Z,6.26
2023-01-28T07:56:22.431Z,6.34
2023-01-28T07:58:52.550Z,6.52
2023-01-28T08:01:19.688Z,6.39
2023-01-28T08:03:47.090Z,6.37
2023-01-28T08:06:14.495Z,6.30
2023-01-28T08:08:41.901Z,6.34
2023-01-28T08:11:11.952Z,6.37
2023-01-28T08:13:39.282Z,6.41
2023-01-28T08:16:07.048Z,6.57
2023-01-28T08:18:34.381Z,6.02
2023-01-28T08:21:01.427Z,6.37
2023-01-28T08:23:29.107Z,6.39
2023-01-28T08:25:59.024Z,6.48
2023-01-28T08:28:26.725Z,6.42
2023-01-28T08:30:54.312Z,6.35
2023-01-28T08:33:21.639Z,6.38
2023-01-28T08:35:48.593Z,6.37
2023-01-28T08:38:20.342Z,6.31
2023-01-28T08:40:50.445Z,6.29
2023-01-28T08:43:17.511Z,6.34
2023-01-28T08:45:44.892Z,6.48
2023-01-28T08:48:17.351Z,6.53
2023-01-28T08:50:45.109Z,6.39
2023-01-28T08:53:18.572Z,6.58
2023-01-28T08:55:46.685Z,6.46
2023-01-28T08:58:17.697Z,6.60
2023-01-28T09:00:45.690Z,6.56
2023-01-28T09:03:13.183Z,6.60
2023-01-28T09:05:40.643Z,6.69
2023-01-28T09:08:14.534Z,6.69
2023-01-28T09:10:42.355Z,6.69
2023-01-28T09:13:13.949Z,6.84
2023-01-28T09:15:41.846Z,6.69
2023-01-28T09:18:09.277Z,6.55
2023-01-28T09:20:37.838Z,6.35
2023-01-28T09:23:05.440Z,6.31
2023-01-28T09:25:33.078Z,6.46
2023-01-28T09:28:00.484Z,6.50
2023-01-28T09:30:28.258Z,6.52
2023-01-28T09:32:58.797Z,6.31
2023-01-28T09:35:26.320Z,6.20
2023-01-28T09:37:57.594Z,6.20
2023-01-28T09:40:56.817Z,6.37
2023-01-28T09:44:04.752Z,6.79
2023-01-28T09:46:36.889Z,6.68
2023-01-28T09:49:18.090Z,6.77
2023-01-28T09:51:52.310Z,6.53
2023-01-28T09:54:35.831Z,6.46
2023-01-28T09:57:39.829Z,6.45
2023-01-28T10:00:34.862Z,6.02
2023-01-28T10:03:37.059Z,6.05
2023-01-28T10:06:22.717Z,6.33
2023-01-28T10:09:42.502Z,6.19
2023-01-28T10:12:42.769Z,6.10
2023-01-28T10:15:29.870Z,5.74
2023-01-28T10:18:17.306Z,6.23
2023-01-28T10:21:08.491Z,6.39
2023-01-28T10:23:49.251Z,6.29
2023-01-28T10:26:33.449Z,6.24
2023-01-28T10:29:25.080Z,6.51
2023-01-28T10:31:59.841Z,6.60
2023-01-28T10:34:27.487Z,6.49
2023-01-28T10:36:56.961Z,6.59
2023-01-28T10:39:25.826Z,6.37
2023-01-28T10:41:58.396Z,6.56
2023-01-28T10:44:47.597Z,6.67
2023-01-28T10:47:36.109Z,6.62
2023-01-28T10:50:04.164Z,6.40
2023-01-28T10:52:31.497Z,6.63
2023-01-28T10:55:04.893Z,6.46
2023-01-28T10:57:34.921Z,6.07
2023-01-28T11:00:24.768Z,6.24
2023-01-28T11:02:52.312Z,5.92
2023-01-28T11:05:29.130Z,5.94
2023-01-28T11:08:17.327Z,6.09
2023-01-28T11:10:46.357Z,6.19
2023-01-28T11:13:17.442Z,6.04
2023-01-28T11:16:01.973Z,5.97
2023-01-28T11:18:36.335Z,6.28
2023-01-28T11:21:07.571Z,6.36
2023-01-28T11:23:47.742Z,6.28
2023-01-28T11:26:23.666Z,6.25
2023-01-28T11:28:52.417Z,5.99
2023-01-28T11:31:21.994Z,6.25
2023-01-28T11:34:01.377Z,6.23
2023-01-28T11:36:31.719Z,6.27
2023-01-28T11:39:28.377Z,6.38
2023-01-28T11:42:14.928Z,5.95
2023-01-28T11:44:42.582Z,5.88
2023-01-28T11:47:33.521Z,6.29
2023-01-28T11:50:19.631Z,6.32
2023-01-28T11:53:06.990Z,6.28
2023-01-28T11:56:02.481Z,6.14
2023-01-28T11:58:56.643Z,6.31
2023-01-28T12:02:09.862Z,6.48
2023-01-28T12:05:03.539Z,6.26
2023-01-28T12:08:17.177Z,5.96
2023-01-28T12:11:41.738Z,6.00
2023-01-28T12:14:33.077Z,6.29
2023-01-28T12:17:09.334Z,6.31
2023-01-28T12:20:05.633Z,6.12
2023-01-28T12:22:40.281Z,6.46
2023-01-28T12:25:41.128Z,6.37
2023-01-28T12:28:17.331Z,5.68
2023-01-28T12:31:41.308Z,5.93
2023-01-28T12:34:47.937Z,5.54
2023-01-28T12:37:52.579Z,5.57
2023-01-28T12:41:15.089Z,5.74
2023-01-28T12:44:04.218Z,5.96
2023-01-28T12:46:59.989Z,5.84
2023-01-28T12:49:39.039Z,5.93
2023-01-28T12:52:33.235Z,5.74
2023-01-28T12:55:22.543Z,5.93
2023-01-28T12:57:52.697Z,5.50
2023-01-28T13:00:34.078Z,5.98
2023-01-28T13:03:28.904Z,6.40
2023-01-28T13:06:32.358Z,6.29
2023-01-28T13:09:24.637Z,6.26
2023-01-28T13:11:56.656Z,6.07
2023-01-28T13:14:31.160Z,6.35
2023-01-28T13:17:25.767Z,6.61
2023-01-28T13:19:53.191Z,6.32
2023-01-28T13:22:35.978Z,6.28
2023-01-28T13:25:30.039Z,6.41
2023-01-28T13:28:01.436Z,6.35
2023-01-28T13:30:49.217Z,6.35
2023-01-28T13:34:01.590Z,6.79
2023-01-28T13:36:43.511Z,6.63
2023-01-28T13:39:23.127Z,6.53
2023-01-28T13:41:56.347Z,6.74
2023-01-28T13:44:26.193Z,6.50
2023-01-28T13:46:57.751Z,6.30
2023-01-28T13:49:39.075Z,6.35
2023-01-28T13:52:12.074Z,6.41
2023-01-28T13:54:45.299Z,6.36
2023-01-28T13:57:21.011Z,6.57
2023-01-28T14:00:08.548Z,6.59
2023-01-28T14:03:10.033Z,6.66
2023-01-28T14:06:16.973Z,6.72
2023-01-28T14:09:08.884Z,6.26
2023-01-28T14:11:39.363Z,6.08
2023-01-28T14:15:02.430Z,6.44
2023-01-28T14:17:47.867Z,6.30
2023-01-28T14:20:44.109Z,5.98
2023-01-28T14:23:19.204Z,5.99
2023-01-28T14:26:12.946Z,6.32
2023-01-28T14:29:08.920Z,6.07
2023-01-28T14:31:40.117Z,6.03
2023-01-28T14:34:26.244Z,6.29
2023-01-28T14:36:57.391Z,6.23
2023-01-28T14:39:31.525Z,6.15
2023-01-28T14:42:03.670Z,6.14
2023-01-28T14:44:36.136Z,5.83
2023-01-28T14:47:23.829Z,5.99
2023-01-28T14:50:18.729Z,5.69
2023-01-28T14:53:04.698Z,5.60
2023-01-28T14:55:40.138Z,5.81
2023-01-28T14:58:16.765Z,5.66
2023-01-28T15:00:59.251Z,5.96
2023-01-28T15:03:27.718Z,5.83
2023-01-28T15:06:15.267Z,6.15
2023-01-28T15:08:42.678Z,5.71
2023-01-28T15:11:14.836Z,5.69
2023-01-28T15:13:46.810Z,5.96
2023-01-28T15:16:24.237Z,5.83
2023-01-28T15:18:51.820Z,5.83
2023-01-28T15:21:24.681Z,5.63
2023-01-28T15:23:57.063Z,5.96
2023-01-28T15:26:26.414Z,6.02
2023-01-28T15:28:55.219Z,5.96
2023-01-28T15:31:30.125Z,6.09
2023-01-28T15:34:12.570Z,5.58
2023-01-28T15:36:40.004Z,5.83
2023-01-28T15:39:15.530Z,5.81
2023-01-28T15:41:50.080Z,5.87
2023-01-28T15:44:44.369Z,5.94
2023-01-28T15:47:23.587Z,6.14
2023-01-28T15:49:57.760Z,6.13
2023-01-28T15:52:40.153Z,6.14
2023-01-28T15:55:09.094Z,6.15
2023-01-28T15:57:36.653Z,6.31
2023-01-28T16:00:14.815Z,6.31
2023-01-28T16:02:47.688Z,6.07
2023-01-28T16:05:43.108Z,5.95
2023-01-28T16:08:19.458Z,6.20
2023-01-28T16:10:53.888Z,6.01
2023-01-28T16:13:24.591Z,5.85
2023-01-28T16:15:55.027Z,5.85
2023-01-28T16:18:43.293Z,5.78
2023-01-28T16:21:13.097Z,5.88
2023-01-28T16:23:40.677Z,5.69
2023-01-28T16:26:25.980Z,5.71
2023-01-28T16:28:53.713Z,5.59
2023-01-28T16:31:21.313Z,5.78
2023-01-28T16:33:49.008Z,5.89
2023-01-28T16:36:19.417Z,5.86
2023-01-28T16:38:46.939Z,5.62
2023-01-28T16:41:26.611Z,5.65
2023-01-28T16:43:54.261Z,5.75
2023-01-28T16:46:21.437Z,5.79
2023-01-28T16:48:48.472Z,5.77
2023-01-28T16:51:20.833Z,5.84
2023-01-28T16:53:48.788Z,5.62
2023-01-28T16:56:44.412Z,5.85
2023-01-28T16:59:11.842Z,6.08
2023-01-28T17:01:39.817Z,5.87
2023-01-28T17:04:12.225Z,6.17
2023-01-28T17:06:43.006Z,5.86
2023-01-28T17:09:11.858Z,6.02
2023-01-28T17:11:41.982Z,6.09
2023-01-28T17:14:10.797Z,6.07
2023-01-28T17:16:38.695Z,5.97
2023-01-28T17:19:06.249Z,5.90
2023-01-28T17:21:33.621Z,6.07
2023-01-28T17:24:01.553Z,6.02
2023-01-28T17:26:29.169Z,6.17
2023-01-28T17:28:56.883Z,6.12
2023-01-28T17:31:24.099Z,6.06
2023-01-28T17:33:55.255Z,6.07
2023-01-28T17:36:23.386Z,6.02
2023-01-28T17:38:50.763Z,6.08
2023-01-28T17:41:18.855Z,6.26
2023-01-28T17:43:54.645Z,6.27
2023-01-28T17:46:23.552Z,5.79
2023-01-28T17:48:51.417Z,6.05
2023-01-28T17:51:19.253Z,5.96
2023-01-28T17:53:51.840Z,6.21
2023-01-28T17:56:22.981Z,6.06
2023-01-28T17:58:52.711Z,6.25
2023-01-28T18:01:21.475Z,6.23
2023-01-28T18:03:48.901Z,6.38
2023-01-28T18:06:16.385Z,6.41
2023-01-28T18:08:43.834Z,5.85
2023-01-28T18:11:12.882Z,5.77
2023-01-28T18:13:41.850Z,5.87
2023-01-28T18:16:14.860Z,6.31
2023-01-28T18:18:42.888Z,6.24
2023-01-28T18:21:21.653Z,6.27
2023-01-28T18:23:50.706Z,6.35
2023-01-28T18:26:18.382Z,6.28
2023-01-28T18:28:45.798Z,6.20
2023-01-28T18:31:13.322Z,5.87
2023-01-28T18:33:40.741Z,6.02
2023-01-28T18:36:09.095Z,6.11
2023-01-28T18:38:36.640Z,6.26
2023-01-28T18:41:04.111Z,6.31
2023-01-28T18:43:32.771Z,6.23
2023-01-28T18:46:00.578Z,6.32
2023-01-28T18:48:28.572Z,6.23
2023-01-28T18:50:58.426Z,6.23
2023-01-28T18:53:26.179Z,6.23
2023-01-28T18:55:53.964Z,6.27
2023-01-28T18:58:21.372Z,6.22
2023-01-28T19:00:48.722Z,6.15
2023-01-28T19:03:16.139Z,6.01
2023-01-28T19:05:43.505Z,6.14
2023-01-28T19:08:10.907Z,6.20
2023-01-28T19:10:38.286Z,6.18
2023-01-28T19:13:05.639Z,6.18
2023-01-28T19:15:33.099Z,6.29
2023-01-28T19:18:02.069Z,6.42
2023-01-28T19:20:29.591Z,6.29
2023-01-28T19:22:56.927Z,6.41
2023-01-28T19:25:24.272Z,6.36
2023-01-28T19:27:54.538Z,6.34
2023-01-28T19:30:22.200Z,6.36
2023-01-28T19:32:49.585Z,6.29
2023-01-28T19:35:17.454Z,6.35
2023-01-28T19:37:46.016Z,6.34
2023-01-28T19:40:13.696Z,6.31
2023-01-28T19:42:43.109Z,6.31
2023-01-28T19:45:10.985Z,6.35
2023-01-28T19:47:38.868Z,6.29
2023-01-28T19:50:06.849Z,6.22
2023-01-28T19:52:34.182Z,6.28
2023-01-28T19:55:01.552Z,6.25
2023-01-28T19:57:29.039Z,6.22
2023-01-28T19:59:56.384Z,6.24
2023-01-28T20:02:23.785Z,6.23
2023-01-28T20:05:00.255Z,6.21
2023-01-28T20:07:28.426Z,6.22
2023-01-28T20:09:55.847Z,6.20
2023-01-28T20:12:23.252Z,6.06
2023-01-28T20:14:50.600Z,6.13
2023-01-28T20:17:18.413Z,6.17
2023-01-28T20:19:45.916Z,6.17
2023-01-28T20:22:13.572Z,6.27
2023-01-28T20:24:40.936Z,6.18
2023-01-28T20:27:08.267Z,6.25
2023-01-28T20:29:35.572Z,6.27
2023-01-28T20:32:16.219Z,6.10
2023-01-28T20:34:45.157Z,5.90
2023-01-28T20:37:12.517Z,5.82
2023-01-28T20:39:39.870Z,5.88
2023-01-28T20:42:09.310Z,5.83
2023-01-28T20:44:36.684Z,5.69
2023-01-28T20:47:04.352Z,5.75
2023-01-28T20:49:31.803Z,5.43
2023-01-28T20:51:59.154Z,5.55
2023-01-28T20:54:26.560Z,5.79
2023-01-28T20:56:54.470Z,5.89
2023-01-28T20:59:22.566Z,6.07
2023-01-28T21:01:50.401Z,6.17
2023-01-28T21:04:18.473Z,6.30
2023-01-28T21:06:45.943Z,6.22
2023-01-28T21:09:13.381Z,6.12
2023-01-28T21:11:40.766Z,6.14
2023-01-28T21:14:08.099Z,5.77
2023-01-28T21:16:40.967Z,5.65
2023-01-28T21:19:08.361Z,5.84
2023-01-28T21:21:35.690Z,6.05
2023-01-28T21:24:03.159Z,6.22
2023-01-28T21:26:30.558Z,6.08
2023-01-28T21:28:57.947Z,6.29
2023-01-28T21:31:26.680Z,6.34
2023-01-28T21:33:58.656Z,6.24
2023-01-28T21:36:26.665Z,6.20
2023-01-28T21:38:55.782Z,6.00
2023-01-28T21:41:23.370Z,5.95
2023-01-28T21:43:54.945Z,6.15
2023-01-28T21:46:25.189Z,6.05
2023-01-28T21:48:57.353Z,6.09
2023-01-28T21:51:39.280Z,5.94
2023-01-28T21:54:14.118Z,5.98
2023-01-28T21:56:47.249Z,6.05
2023-01-28T21:59:27.816Z,6.02
2023-01-28T22:02:10.380Z,5.99
2023-01-28T22:04:39.993Z,6.09
2023-01-28T22:07:11.880Z,5.99
2023-01-28T22:09:39.893Z,5.95
2023-01-28T22:12:08.091Z,5.73
2023-01-28T22:14:36.767Z,5.86
2023-01-28T22:17:07.157Z,5.78
2023-01-28T22:19:34.766Z,5.65
2023-01-28T22:22:02.100Z,5.72
2023-01-28T22:24:30.384Z,5.86
2023-01-28T22:26:57.831Z,5.63
2023-01-28T22:29:26.016Z,5.56
2023-01-28T22:31:54.804Z,5.86
2023-01-28T22:34:22.613Z,5.94
2023-01-28T22:36:51.131Z,5.97
2023-01-28T22:39:19.037Z,5.84
2023-01-28T22:41:46.974Z,5.84
2023-01-28T22:44:14.720Z,5.64
2023-01-28T22:46:42.134Z,5.74
2023-01-28T22:49:11.766Z,5.56
2023-01-28T22:51:39.106Z,5.36
2023-01-28T22:54:06.569Z,5.42
2023-01-28T22:56:34.084Z,5.38
2023-01-28T22:59:03.624Z,5.54
2023-01-28T23:01:31.061Z,5.60
2023-01-28T23:03:58.739Z,5.51
2023-01-28T23:06:27.147Z,5.43
2023-01-28T23:08:56.147Z,5.76
2023-01-28T23:11:27.982Z,5.42
2023-01-28T23:14:20.927Z,5.64
2023-01-28T23:17:06.892Z,5.83
2023-01-28T23:19:53.341Z,5.68
2023-01-28T23:22:49.325Z,5.77
2023-01-28T23:25:17.317Z,5.47
2023-01-28T23:27:45.087Z,5.61
2023-01-28T23:30:13.332Z,5.90
2023-01-28T23:32:44.151Z,5.74
2023-01-28T23:35:12.401Z,5.69
2023-01-28T23:37:39.821Z,5.74
2023-01-28T23:40:07.834Z,5.77
2023-01-28T23:42:35.202Z,5.73
2023-01-28T23:45:02.856Z,5.68
2023-01-28T23:47:30.412Z,5.72
2023-01-28T23:49:57.761Z,5.63
2023-01-28T23:52:26.651Z,5.81
2023-01-28T23:54:54.002Z,5.89
2023-01-28T23:57:21.340Z,5.90
2023-01-28T23:59:48.682Z,6.02
